createdAt,value
2023-02-22T00:02:25.401Z,96330.00
2023-02-22T00:04:54.058Z,96328.80
2023-02-22T00:07:23.928Z,96326.80
2023-02-22T00:09:51.959Z,96329.80
2023-02-22T00:12:20.753Z,96331.20
2023-02-22T00:14:48.767Z,96334.40
2023-02-22T00:17:16.789Z,96337.20
2023-02-22T00:19:44.770Z,96342.60
2023-02-22T00:22:13.334Z,96337.00
2023-02-22T00:24:41.589Z,96340.80
2023-02-22T00:27:09.695Z,96342.00
2023-02-22T00:29:38.830Z,96342.00
2023-02-22T00:32:07.182Z,96331.40
2023-02-22T00:34:35.346Z,96335.60
2023-02-22T00:37:04.370Z,96331.20
2023-02-22T00:39:32.752Z,96335.00
2023-02-22T00:42:00.806Z,96336.60
2023-02-22T00:44:30.596Z,96342.20
2023-02-22T00:46:58.752Z,96333.80
2023-02-22T00:49:26.835Z,96338.80
2023-02-22T00:51:54.919Z,96336.80
2023-02-22T00:54:23.033Z,96339.80
2023-02-22T00:56:51.125Z,96337.00
2023-02-22T00:59:19.302Z,96339.60
2023-02-22T01:01:47.781Z,96340.60
2023-02-22T01:04:15.998Z,96339.00
2023-02-22T01:06:43.981Z,96334.80
2023-02-22T01:09:12.099Z,96338.60
2023-02-22T01:11:42.568Z,96333.60
2023-02-22T01:14:11.851Z,96335.60
2023-02-22T01:16:39.940Z,96330.20
2023-02-22T01:19:08.027Z,96333.00
2023-02-22T01:21:36.031Z,96335.60
2023-02-22T01:24:04.178Z,96339.20
2023-02-22T01:26:32.205Z,96339.80
2023-02-22T01:29:00.608Z,96337.80
2023-02-22T01:31:28.670Z,96332.20
2023-02-22T01:33:56.680Z,96326.80
2023-02-22T01:36:24.722Z,96328.00
2023-02-22T01:38:53.409Z,96326.00
2023-02-22T01:41:22.703Z,96324.20
2023-02-22T01:43:50.797Z,96325.40
2023-02-22T01:46:25.963Z,96331.00
2023-02-22T01:48:55.517Z,96328.80
2023-02-22T01:51:28.567Z,96335.20
2023-02-22T01:54:04.141Z,96330.20
2023-02-22T01:56:33.778Z,96335.80
2023-02-22T01:59:06.859Z,96337.20
2023-02-22T02:01:35.917Z,96337.60
2023-02-22T02:04:06.156Z,96333.20
2023-02-22T02:06:34.167Z,96337.40
2023-02-22T02:09:15.020Z,96341.20
2023-02-22T02:11:43.154Z,96347.60
2023-02-22T02:14:11.626Z,96347.40
2023-02-22T02:16:44.793Z,96350.60
2023-02-22T02:19:54.965Z,96347.40
2023-02-22T02:22:38.654Z,96348.40
2023-02-22T02:25:31.006Z,96346.20
2023-02-22T02:28:20.290Z,96344.40
2023-02-22T02:30:58.236Z,96346.00
2023-02-22T02:33:31.886Z,96348.40
2023-02-22T02:36:08.658Z,96345.40
2023-02-22T02:38:45.739Z,96350.00
2023-02-22T02:41:25.591Z,96345.20
2023-02-22T02:44:06.260Z,96345.60
2023-02-22T02:46:47.185Z,96353.40
2023-02-22T02:49:18.280Z,96354.20
2023-02-22T02:51:51.134Z,96357.20
2023-02-22T02:54:19.206Z,96359.00
2023-02-22T02:56:47.635Z,96359.60
2023-02-22T02:59:33.808Z,96363.00
2023-02-22T03:02:20.265Z,96365.80
2023-02-22T03:05:07.478Z,96365.40
2023-02-22T03:07:43.278Z,96363.80
2023-02-22T03:10:23.515Z,96364.60
2023-02-22T03:13:15.488Z,96365.40
2023-02-22T03:15:57.511Z,96369.80
2023-02-22T03:18:29.383Z,96368.60
2023-02-22T03:20:57.656Z,96369.40
2023-02-22T03:24:01.475Z,96370.80
2023-02-22T03:26:36.088Z,96371.40
2023-02-22T03:29:05.279Z,96378.40
2023-02-22T03:31:37.562Z,96374.80
2023-02-22T03:34:14.493Z,96376.80
2023-02-22T03:36:52.704Z,96380.60
2023-02-22T03:39:20.821Z,96380.60
2023-02-22T03:41:51.519Z,96385.80
2023-02-22T03:44:24.685Z,96379.40
2023-02-22T03:46:54.210Z,96380.00
2023-02-22T03:49:37.557Z,96381.60
2023-02-22T03:52:07.449Z,96384.20
2023-02-22T03:54:36.208Z,96384.60
2023-02-22T03:57:14.644Z,96385.20
2023-02-22T03:59:43.748Z,96384.00
2023-02-22T04:02:11.847Z,96384.40
2023-02-22T04:04:39.981Z,96385.00
2023-02-22T04:07:08.183Z,96382.60
2023-02-22T04:09:36.263Z,96380.40
2023-02-22T04:12:05.290Z,96382.20
2023-02-22T04:14:42.797Z,96384.40
2023-02-22T04:17:10.932Z,96389.40
2023-02-22T04:19:39.158Z,96385.20
2023-02-22T04:22:07.318Z,96388.00
2023-02-22T04:24:36.236Z,96386.80
2023-02-22T04:27:04.302Z,96391.80
2023-02-22T04:29:34.720Z,96390.60
2023-02-22T04:32:03.871Z,96389.80
2023-02-22T04:34:32.106Z,96394.20
2023-02-22T04:37:00.342Z,96386.60
2023-02-22T04:39:28.835Z,96385.20
2023-02-22T04:41:57.092Z,96384.80
2023-02-22T04:44:26.239Z,96388.40
2023-02-22T04:46:54.410Z,96390.80
2023-02-22T04:49:22.637Z,96395.60
2023-02-22T04:51:52.354Z,96391.40
2023-02-22T04:54:24.352Z,96397.60
2023-02-22T04:56:52.683Z,96396.40
2023-02-22T04:59:21.490Z,96400.60
2023-02-22T05:01:55.185Z,96402.20
2023-02-22T05:04:23.319Z,96405.00
2023-02-22T05:06:53.285Z,96410.60
2023-02-22T05:09:22.864Z,96415.00
2023-02-22T05:11:50.997Z,96409.60
2023-02-22T05:14:19.123Z,96415.20
2023-02-22T05:16:49.950Z,96415.00
2023-02-22T05:19:18.770Z,96412.00
2023-02-22T05:21:46.767Z,96419.00
2023-02-22T05:24:14.980Z,96420.40
2023-02-22T05:26:44.036Z,96422.20
2023-02-22T05:29:12.263Z,96419.00
2023-02-22T05:31:42.190Z,96420.40
2023-02-22T05:34:10.406Z,96418.80
2023-02-22T05:36:38.450Z,96424.80
2023-02-22T05:39:06.748Z,96428.40
2023-02-22T05:41:34.969Z,96433.20
2023-02-22T05:44:03.315Z,96438.60
2023-02-22T05:46:31.602Z,96432.80
2023-02-22T05:48:59.915Z,96435.20
2023-02-22T05:51:28.187Z,96435.00
2023-02-22T05:53:56.516Z,96434.60
2023-02-22T05:56:26.052Z,96438.60
2023-02-22T05:58:54.435Z,96442.60
2023-02-22T06:01:22.462Z,96449.00
2023-02-22T06:03:50.827Z,96449.80
2023-02-22T06:06:22.263Z,96454.80
2023-02-22T06:08:50.651Z,96458.20
2023-02-22T06:11:19.978Z,96459.20
2023-02-22T06:13:52.164Z,96464.20
2023-02-22T06:16:22.307Z,96468.80
2023-02-22T06:18:50.405Z,96475.80
2023-02-22T06:21:18.926Z,96480.00
2023-02-22T06:23:47.365Z,96490.20
2023-02-22T06:26:18.931Z,96489.80
2023-02-22T06:28:47.272Z,96495.00
2023-02-22T06:31:15.539Z,96501.60
2023-02-22T06:33:43.867Z,96503.80
2023-02-22T06:36:11.879Z,96512.20
2023-02-22T06:38:39.979Z,96510.40
2023-02-22T06:41:09.077Z,96515.40
2023-02-22T06:43:37.342Z,96514.80
2023-02-22T06:46:05.906Z,96516.00
2023-02-22T06:48:34.008Z,96514.20
2023-02-22T06:51:02.197Z,96513.60
2023-02-22T06:53:30.330Z,96513.80
2023-02-22T06:55:58.440Z,96515.60
2023-02-22T06:58:27.306Z,96515.20
2023-02-22T07:00:55.579Z,96515.60
2023-02-22T07:03:23.690Z,96523.80
2023-02-22T07:05:51.709Z,96526.60
2023-02-22T07:08:19.840Z,96529.80
2023-02-22T07:10:50.661Z,96528.00
2023-02-22T07:13:19.432Z,96529.00
2023-02-22T07:15:47.541Z,96531.60
2023-02-22T07:18:16.414Z,96535.00
2023-02-22T07:20:44.526Z,96531.60
2023-02-22T07:23:16.251Z,96533.40
2023-02-22T07:25:45.231Z,96530.20
2023-02-22T07:28:13.311Z,96528.80
2023-02-22T07:30:41.462Z,96525.60
2023-02-22T07:33:11.320Z,96534.00
2023-02-22T07:35:43.868Z,96527.40
2023-02-22T07:38:11.902Z,96534.00
2023-02-22T07:40:40.272Z,96536.00
2023-02-22T07:43:28.101Z,96533.00
2023-02-22T07:45:56.936Z,96531.00
2023-02-22T07:48:26.204Z,96534.40
2023-02-22T07:50:54.409Z,96536.20
2023-02-22T07:53:28.863Z,96539.40
2023-02-22T07:55:58.188Z,96540.20
2023-02-22T07:58:28.146Z,96543.60
2023-02-22T08:00:56.298Z,96543.80
2023-02-22T08:03:25.528Z,96543.80
2023-02-22T08:05:55.914Z,96544.60
2023-02-22T08:08:24.104Z,96543.00
2023-02-22T08:10:52.365Z,96542.40
2023-02-22T08:13:21.030Z,96543.40
2023-02-22T08:15:51.180Z,96546.60
2023-02-22T08:18:19.645Z,96550.60
2023-02-22T08:20:48.552Z,96548.00
2023-02-22T08:23:16.842Z,96542.00
2023-02-22T08:25:45.005Z,96545.80
2023-02-22T08:28:15.286Z,96550.00
2023-02-22T08:30:43.997Z,96545.80
2023-02-22T08:33:14.695Z,96547.40
2023-02-22T08:35:42.769Z,96551.20
2023-02-22T08:38:37.936Z,96554.40
2023-02-22T08:41:07.122Z,96550.40
2023-02-22T08:43:35.383Z,96550.00
2023-02-22T08:46:03.584Z,96547.40
2023-02-22T08:48:31.639Z,96550.40
2023-02-22T08:50:59.753Z,96554.00
2023-02-22T08:53:27.765Z,96554.60
2023-02-22T08:55:55.853Z,96556.40
2023-02-22T08:58:23.992Z,96555.20
2023-02-22T09:00:52.238Z,96554.20
2023-02-22T09:03:20.251Z,96559.40
2023-02-22T09:05:48.522Z,96562.60
2023-02-22T09:08:17.562Z,96557.00
2023-02-22T09:10:45.604Z,96553.20
2023-02-22T09:13:13.920Z,96557.20
2023-02-22T09:15:42.669Z,96561.00
2023-02-22T09:18:12.609Z,96561.40
2023-02-22T09:20:42.202Z,96557.20
2023-02-22T09:23:10.511Z,96565.40
2023-02-22T09:25:41.068Z,96562.60
2023-02-22T09:28:09.372Z,96559.20
2023-02-22T09:30:37.804Z,96556.40
2023-02-22T09:33:10.871Z,96556.40
2023-02-22T09:35:42.705Z,96550.40
2023-02-22T09:38:11.668Z,96553.40
2023-02-22T09:40:45.265Z,96554.00
2023-02-22T09:43:16.952Z,96553.60
2023-02-22T09:45:56.981Z,96553.40
2023-02-22T09:48:25.462Z,96557.80
2023-02-22T09:50:54.163Z,96551.60
2023-02-22T09:53:31.399Z,96551.60
2023-02-22T09:56:11.168Z,96555.40
2023-02-22T09:58:45.977Z,96554.60
2023-02-22T10:01:27.460Z,96557.40
2023-02-22T10:04:05.252Z,96557.60
2023-02-22T10:06:34.254Z,96557.40
2023-02-22T10:09:07.883Z,96556.40
2023-02-22T10:12:02.444Z,96557.20
2023-02-22T10:14:50.189Z,96556.20
2023-02-22T10:17:39.900Z,96555.20
2023-02-22T10:20:16.726Z,96556.20
2023-02-22T10:23:16.061Z,96552.40
2023-02-22T10:25:45.192Z,96546.60
2023-02-22T10:28:14.902Z,96544.40
2023-02-22T10:31:02.650Z,96541.80
2023-02-22T10:33:42.299Z,96541.80
2023-02-22T10:36:19.186Z,96552.80
2023-02-22T10:39:00.542Z,96541.80
2023-02-22T10:41:30.981Z,96544.60
2023-02-22T10:44:02.080Z,96537.40
2023-02-22T10:46:31.266Z,96533.80
2023-02-22T10:49:05.045Z,96535.80
2023-02-22T10:51:33.312Z,96538.40
2023-02-22T10:54:24.942Z,96533.80
2023-02-22T10:56:55.711Z,96533.80
2023-02-22T10:59:42.571Z,96539.00
2023-02-22T11:02:18.538Z,96537.80
2023-02-22T11:04:47.878Z,96540.60
2023-02-22T11:07:20.455Z,96537.20
2023-02-22T11:09:53.250Z,96530.20
2023-02-22T11:12:34.703Z,96529.60
2023-02-22T11:15:19.047Z,96531.20
2023-02-22T11:17:47.897Z,96527.40
2023-02-22T11:20:39.568Z,96530.60
2023-02-22T11:23:08.427Z,96532.20
2023-02-22T11:25:38.537Z,96531.20
2023-02-22T11:28:16.624Z,96532.80
2023-02-22T11:30:44.848Z,96535.60
2023-02-22T11:33:16.286Z,96536.00
2023-02-22T11:35:54.150Z,96531.40
2023-02-22T11:38:32.653Z,96535.40
2023-02-22T11:41:26.801Z,96539.00
2023-02-22T11:43:55.008Z,96533.00
2023-02-22T11:46:29.262Z,96529.80
2023-02-22T11:49:07.167Z,96528.00
2023-02-22T11:51:45.229Z,96528.00
2023-02-22T11:54:29.081Z,96531.60
2023-02-22T11:57:07.390Z,96524.00
2023-02-22T11:59:40.804Z,96527.40
2023-02-22T12:02:24.703Z,96524.00
2023-02-22T12:05:08.256Z,96522.80
2023-02-22T12:07:46.109Z,96525.40
2023-02-22T12:10:18.525Z,96521.40
2023-02-22T12:13:03.965Z,96522.60
2023-02-22T12:15:36.385Z,96520.00
2023-02-22T12:18:10.373Z,96519.80
2023-02-22T12:20:40.808Z,96518.40
2023-02-22T12:23:20.932Z,96518.80
2023-02-22T12:26:05.670Z,96528.60
2023-02-22T12:28:47.868Z,96521.20
2023-02-22T12:31:29.817Z,96522.40
2023-02-22T12:34:16.430Z,96514.60
2023-02-22T12:36:50.477Z,96521.60
2023-02-22T12:39:25.559Z,96528.00
2023-02-22T12:41:55.333Z,96524.20
2023-02-22T12:44:26.627Z,96520.60
2023-02-22T12:46:56.916Z,96525.80
2023-02-22T12:49:38.855Z,96518.60
2023-02-22T12:52:36.223Z,96518.80
2023-02-22T12:55:23.788Z,96512.60
2023-02-22T12:57:57.327Z,96507.20
2023-02-22T13:01:02.150Z,96509.60
2023-02-22T13:03:37.042Z,96505.00
2023-02-22T13:06:28.200Z,96504.40
2023-02-22T13:09:08.845Z,96508.00
2023-02-22T13:11:47.550Z,96504.00
2023-02-22T13:14:37.407Z,96500.20
2023-02-22T13:17:27.097Z,96498.80
2023-02-22T13:19:57.945Z,96489.00
2023-02-22T13:22:40.467Z,96499.20
2023-02-22T13:25:15.259Z,96500.80
2023-02-22T13:28:03.347Z,96499.80
2023-02-22T13:30:38.399Z,96494.80
2023-02-22T13:33:21.515Z,96494.00
2023-02-22T13:35:56.973Z,96489.20
2023-02-22T13:38:42.908Z,96489.00
2023-02-22T13:41:28.010Z,96488.00
2023-02-22T13:44:10.704Z,96492.40
2023-02-22T13:46:45.715Z,96491.60
2023-02-22T13:49:41.591Z,96492.80
2023-02-22T13:52:14.861Z,96487.00
2023-02-22T13:54:51.475Z,96492.40
2023-02-22T13:57:22.501Z,96492.20
2023-02-22T14:00:23.455Z,96489.80
2023-02-22T14:03:09.194Z,96492.80
2023-02-22T14:05:43.224Z,96483.80
2023-02-22T14:08:14.452Z,96494.60
2023-02-22T14:10:48.671Z,96492.40
2023-02-22T14:13:22.652Z,96496.20
2023-02-22T14:16:00.184Z,96495.00
2023-02-22T14:18:45.106Z,96500.80
2023-02-22T14:21:18.185Z,96499.20
2023-02-22T14:23:52.739Z,96501.20
2023-02-22T14:26:26.059Z,96503.20
2023-02-22T14:28:58.268Z,96502.60
2023-02-22T14:31:50.904Z,96502.40
2023-02-22T14:34:22.356Z,96508.40
2023-02-22T14:37:19.608Z,96505.40
2023-02-22T14:40:20.122Z,96511.00
2023-02-22T14:42:50.079Z,96509.80
2023-02-22T14:45:29.846Z,96504.00
2023-02-22T22:48:18.047Z,96542.40
2023-02-22T22:50:46.753Z,96541.00
2023-02-22T22:53:16.649Z,96538.80
2023-02-22T22:55:44.717Z,96542.60
2023-02-22T22:58:13.498Z,96546.20
2023-02-22T23:00:42.187Z,96539.20
2023-02-22T23:03:11.920Z,96540.00
2023-02-22T23:05:42.492Z,96535.40
2023-02-22T23:08:13.267Z,96534.40
2023-02-22T23:10:41.644Z,96535.40
2023-02-22T23:13:10.634Z,96536.00
2023-02-22T23:15:43.300Z,96536.00
2023-02-22T23:18:12.730Z,96535.20
2023-02-22T23:20:41.749Z,96532.80
2023-02-22T23:23:14.819Z,96531.20
2023-02-22T23:25:42.878Z,96534.80
2023-02-22T23:28:14.818Z,96543.00
2023-02-22T23:30:43.130Z,96540.00
2023-02-22T23:33:11.337Z,96539.40
2023-02-22T23:35:39.678Z,96540.20
2023-02-22T23:38:08.345Z,96541.00
2023-02-22T23:40:37.760Z,96539.60
2023-02-22T23:43:07.789Z,96544.00
2023-02-22T23:45:38.828Z,96541.00
2023-02-22T23:48:07.014Z,96542.60
2023-02-22T23:50:36.605Z,96542.80
2023-02-22T23:53:06.138Z,96543.60
2023-02-22T23:55:39.211Z,96543.60
2023-02-22T23:58:07.349Z,96545.00
